createdAt,value
2023-04-18T00:00:50.325Z,11.67
2023-04-18T00:05:53.381Z,11.63
2023-04-18T00:10:56.486Z,11.65
2023-04-18T00:15:59.666Z,11.60
2023-04-18T00:21:03.694Z,11.64
2023-04-18T00:26:06.665Z,11.70
2023-04-18T00:31:11.021Z,11.72
2023-04-18T00:36:13.998Z,11.66
2023-04-18T00:41:18.785Z,11.61
2023-04-18T00:46:21.952Z,11.57
2023-04-18T00:51:26.092Z,11.55
2023-04-18T00:56:30.136Z,11.57
2023-04-18T01:01:34.212Z,11.57
2023-04-18T01:06:37.405Z,11.58
2023-04-18T01:11:40.392Z,11.56
2023-04-18T01:16:47.370Z,11.54
2023-04-18T01:22:13.520Z,11.52
2023-04-18T01:27:17.067Z,11.55
2023-04-18T01:32:20.781Z,11.62
2023-04-18T01:37:24.257Z,11.64
2023-04-18T01:42:27.245Z,11.63
2023-04-18T01:47:30.273Z,11.62
2023-04-18T01:52:33.532Z,11.64
2023-04-18T01:57:37.030Z,11.68
2023-04-18T02:02:40.377Z,11.74
2023-04-18T02:07:43.671Z,11.74
2023-04-18T02:12:47.019Z,11.74
2023-04-18T02:17:50.693Z,11.68
2023-04-18T02:22:53.652Z,11.66
2023-04-18T02:27:58.328Z,11.63
2023-04-18T02:33:01.758Z,11.59
2023-04-18T02:38:05.032Z,11.60
2023-04-18T02:43:08.417Z,11.53
2023-04-18T02:48:11.486Z,11.51
2023-04-18T02:53:14.654Z,11.50
2023-04-18T02:58:27.973Z,11.53
2023-04-18T03:03:31.043Z,11.58
2023-04-18T03:08:52.380Z,11.59
2023-04-18T03:13:55.994Z,11.58
2023-04-18T03:18:59.797Z,11.52
2023-04-18T03:24:05.499Z,11.45
2023-04-18T03:29:10.256Z,11.43
2023-04-18T03:34:13.766Z,11.43
2023-04-18T03:39:17.321Z,11.41
2023-04-18T03:44:20.830Z,11.38
2023-04-18T03:49:24.000Z,11.38
2023-04-18T03:54:27.315Z,11.35
2023-04-18T03:59:31.638Z,11.35
2023-04-18T04:04:38.971Z,11.36
2023-04-18T04:09:42.086Z,11.37
2023-04-18T04:14:45.274Z,11.33
2023-04-18T04:19:50.397Z,11.29
2023-04-18T04:24:57.844Z,11.25
2023-04-18T04:30:05.262Z,11.19
2023-04-18T04:35:08.960Z,11.19
2023-04-18T04:40:14.659Z,11.25
2023-04-18T04:45:24.258Z,11.27
2023-04-18T04:50:28.496Z,11.31
2023-04-18T04:55:32.882Z,11.34
2023-04-18T05:00:36.294Z,11.34
2023-04-18T05:05:39.666Z,11.36
2023-04-18T05:10:43.479Z,11.38
2023-04-18T05:15:46.888Z,11.47
2023-04-18T05:20:50.085Z,11.54
2023-04-18T05:25:53.164Z,11.54
2023-04-18T05:31:01.635Z,11.51
2023-04-18T05:36:09.358Z,11.49
2023-04-18T05:41:12.630Z,11.51
2023-04-18T05:46:15.905Z,11.58
2023-04-18T05:51:18.954Z,11.67
2023-04-18T05:56:21.983Z,11.74
2023-04-18T06:01:24.989Z,11.75
2023-04-18T06:06:28.310Z,11.79
2023-04-18T06:11:35.667Z,11.84
2023-04-18T06:16:38.771Z,11.83
2023-04-18T06:21:42.923Z,11.85
2023-04-18T06:26:45.951Z,11.86
2023-04-18T06:31:50.860Z,11.91
2023-04-18T06:36:54.426Z,11.92
2023-04-18T06:41:58.946Z,11.90
2023-04-18T06:47:06.015Z,12.02
2023-04-18T06:52:09.184Z,12.22
2023-04-18T06:57:12.259Z,12.20
2023-04-18T07:02:15.888Z,12.27
2023-04-18T07:07:20.084Z,12.27
2023-04-18T07:12:23.235Z,12.27
2023-04-18T07:17:26.263Z,12.29
2023-04-18T07:22:29.787Z,12.32
2023-04-18T07:27:35.992Z,12.35
2023-04-18T07:32:39.201Z,12.39
2023-04-18T07:37:42.334Z,12.43
2023-04-18T07:42:45.625Z,12.52
2023-04-18T07:47:48.796Z,12.67
2023-04-18T07:52:51.855Z,12.80
2023-04-18T07:57:54.808Z,12.98
2023-04-18T08:02:57.838Z,13.19
2023-04-18T08:08:00.886Z,13.36
2023-04-18T08:13:09.866Z,13.44
2023-04-18T08:18:12.871Z,13.50
2023-04-18T08:23:16.054Z,13.47
2023-04-18T08:28:19.024Z,13.52
2023-04-18T08:33:24.025Z,13.61
2023-04-18T08:38:27.418Z,13.65
2023-04-18T08:43:31.372Z,13.70
2023-04-18T08:48:34.940Z,13.82
2023-04-18T08:53:39.430Z,14.02
2023-04-18T08:58:45.242Z,14.18
2023-04-18T09:03:48.482Z,14.32
2023-04-18T09:09:04.182Z,14.46
2023-04-18T09:14:07.926Z,14.58
2023-04-18T09:19:18.808Z,14.62
2023-04-18T09:25:44.987Z,14.66
2023-04-18T09:30:51.709Z,14.85
2023-04-18T09:35:55.830Z,15.05
2023-04-18T09:41:16.590Z,15.02
2023-04-18T09:46:22.722Z,15.08
2023-04-18T09:51:27.067Z,15.23
2023-04-18T09:56:32.145Z,15.40
2023-04-18T10:01:36.177Z,15.65
2023-04-18T10:06:42.239Z,15.85
2023-04-18T10:11:45.839Z,16.14
2023-04-18T10:16:50.611Z,16.21
2023-04-18T10:21:58.533Z,16.31
2023-04-18T10:27:02.594Z,16.43
2023-04-18T10:32:07.206Z,16.56
2023-04-18T10:37:12.936Z,16.66
2023-04-18T10:42:16.529Z,16.92
2023-04-18T10:47:21.172Z,17.11
2023-04-18T10:52:24.537Z,17.26
2023-04-18T10:57:41.421Z,17.40
2023-04-18T11:02:57.938Z,17.38
2023-04-18T11:08:01.161Z,17.35
2023-04-18T11:13:06.669Z,17.49
2023-04-18T11:18:09.706Z,17.72
2023-04-18T11:23:30.650Z,17.92
2023-04-18T11:28:33.684Z,18.13
2023-04-18T11:33:36.859Z,18.27
2023-04-18T11:38:40.859Z,18.37
2023-04-18T11:43:45.595Z,18.52
2023-04-18T11:48:50.516Z,18.53
2023-04-18T11:53:54.350Z,18.55
2023-04-18T11:59:10.477Z,18.55
2023-04-18T12:04:14.451Z,18.60
2023-04-18T12:09:18.694Z,18.60
2023-04-18T12:14:23.051Z,18.77
2023-04-18T12:19:28.499Z,18.91
2023-04-18T12:24:32.446Z,18.98
2023-04-18T12:29:35.873Z,18.97
2023-04-18T12:34:39.447Z,18.92
2023-04-18T12:39:42.437Z,18.84
2023-04-18T12:44:48.512Z,18.82
2023-04-18T12:49:51.441Z,18.88
2023-04-18T12:54:56.446Z,18.92
2023-04-18T13:00:00.069Z,19.00
2023-04-18T13:05:41.628Z,18.95
2023-04-18T13:10:48.064Z,18.95
2023-04-18T13:15:51.543Z,18.89
2023-04-18T13:20:54.513Z,18.80
2023-04-18T13:25:57.531Z,18.76
2023-04-18T13:31:00.571Z,18.70
2023-04-18T13:36:03.864Z,18.56
2023-04-18T13:41:12.731Z,18.50
2023-04-18T13:46:17.730Z,18.43
2023-04-18T13:51:20.955Z,18.40
2023-04-18T13:56:24.375Z,18.42
2023-04-18T14:01:28.057Z,18.34
2023-04-18T14:06:32.622Z,18.29
2023-04-18T14:11:35.709Z,18.21
2023-04-18T14:16:39.408Z,18.21
2023-04-18T14:21:42.384Z,18.30
2023-04-18T14:26:45.445Z,18.36
2023-04-18T14:31:48.804Z,18.26
2023-04-18T14:40:25.546Z,18.02
2023-04-18T14:45:28.591Z,17.86
2023-04-18T14:50:31.745Z,17.73
2023-04-18T14:55:34.826Z,17.64
2023-04-18T15:00:37.986Z,17.57
2023-04-18T15:05:43.198Z,17.55
2023-04-18T15:10:47.622Z,17.53
2023-04-18T15:15:54.633Z,17.52
2023-04-18T15:21:00.026Z,17.47
2023-04-18T15:26:03.161Z,17.35
2023-04-18T15:31:06.645Z,17.22
2023-04-18T15:36:10.135Z,17.11
2023-04-18T15:41:13.315Z,16.97
2023-04-18T15:46:16.430Z,17.01
2023-04-18T15:51:19.642Z,17.30
2023-04-18T15:56:25.186Z,17.57
2023-04-18T16:01:28.444Z,17.71
2023-04-18T16:06:31.762Z,17.76
2023-04-18T16:11:35.448Z,17.68
2023-04-18T16:16:38.676Z,17.53
2023-04-18T16:21:41.644Z,17.38
2023-04-18T16:26:44.641Z,17.47
2023-04-18T16:31:48.238Z,17.57
2023-04-18T16:36:51.479Z,17.55
2023-04-18T16:41:54.662Z,17.58
2023-04-18T16:46:57.803Z,17.54
2023-04-18T16:52:01.652Z,17.18
2023-04-18T16:57:05.009Z,17.26
2023-04-18T17:02:08.318Z,17.53
2023-04-18T17:07:11.476Z,17.67
2023-04-18T17:12:14.431Z,17.79
2023-04-18T17:17:17.483Z,17.77
2023-04-18T17:22:20.561Z,17.76
2023-04-18T17:27:26.490Z,17.34
2023-04-18T17:32:29.475Z,16.99
2023-04-18T17:37:32.455Z,16.72
2023-04-18T17:42:36.955Z,16.46
2023-04-18T17:47:41.050Z,16.26
2023-04-18T17:52:45.254Z,16.11
2023-04-18T17:57:48.403Z,15.98
2023-04-18T18:02:51.928Z,15.84
2023-04-18T18:07:56.515Z,15.74
2023-04-18T18:12:59.933Z,15.72
2023-04-18T18:18:03.005Z,15.63
2023-04-18T18:23:07.798Z,15.59
2023-04-18T18:28:10.833Z,15.49
2023-04-18T18:33:15.978Z,15.38
2023-04-18T18:38:18.930Z,15.31
2023-04-18T18:43:26.407Z,15.24
2023-04-18T18:48:29.549Z,15.21
2023-04-18T18:53:32.698Z,15.22
2023-04-18T18:58:36.121Z,15.16
2023-04-18T19:03:39.379Z,15.10
2023-04-18T19:08:42.705Z,15.05
2023-04-18T19:13:45.965Z,14.97
2023-04-18T19:18:50.768Z,14.93
2023-04-18T19:23:53.920Z,14.86
2023-04-18T19:28:57.196Z,14.85
2023-04-18T19:34:01.114Z,14.80
2023-04-18T19:39:04.341Z,14.72
2023-04-18T19:44:07.507Z,14.66
2023-04-18T19:49:10.477Z,14.62
2023-04-18T19:54:14.156Z,14.58
2023-04-18T19:59:17.401Z,14.53
2023-04-18T20:04:22.333Z,14.44
2023-04-18T20:09:36.429Z,14.39
2023-04-18T20:14:39.512Z,14.32
2023-04-18T20:19:42.626Z,14.28
2023-04-18T20:24:46.350Z,14.33
2023-04-18T20:29:49.524Z,14.38
2023-04-18T20:34:52.541Z,14.32
2023-04-18T20:39:56.698Z,14.30
2023-04-18T20:45:00.477Z,14.27
2023-04-18T20:50:03.913Z,14.25
2023-04-18T20:55:07.226Z,14.17
2023-04-18T21:00:11.273Z,14.06
2023-04-18T21:05:14.460Z,14.00
2023-04-18T21:10:17.499Z,13.92
2023-04-18T21:15:20.455Z,13.88
2023-04-18T21:20:23.588Z,13.85
2023-04-18T21:25:26.720Z,13.78
2023-04-18T21:30:29.768Z,13.69
2023-04-18T21:35:32.828Z,13.65
2023-04-18T21:40:37.446Z,13.62
2023-04-18T21:45:40.502Z,13.56
2023-04-18T21:50:43.766Z,13.52
2023-04-18T21:55:47.045Z,13.51
2023-04-18T22:00:50.575Z,13.49
2023-04-18T22:05:53.630Z,13.44
2023-04-18T22:10:59.114Z,13.43
2023-04-18T22:16:05.663Z,13.40
2023-04-18T22:21:09.719Z,13.39
2023-04-18T22:26:12.965Z,13.36
2023-04-18T22:31:16.243Z,13.32
2023-04-18T22:36:19.302Z,13.31
2023-04-18T22:41:22.353Z,13.25
2023-04-18T22:46:25.395Z,13.16
2023-04-18T22:51:29.334Z,13.14
2023-04-18T22:56:32.358Z,13.17
2023-04-18T23:01:35.432Z,13.16
2023-04-18T23:06:38.936Z,13.13
2023-04-18T23:11:41.923Z,13.14
2023-04-18T23:16:45.011Z,13.09
2023-04-18T23:21:49.517Z,13.07
2023-04-18T23:26:52.854Z,13.03
2023-04-18T23:31:56.193Z,12.99
2023-04-18T23:37:00.616Z,12.95
2023-04-18T23:42:03.795Z,12.96
2023-04-18T23:47:07.012Z,13.01
2023-04-18T23:52:10.086Z,13.06
2023-04-18T23:57:13.015Z,13.06
